sensor_id;sensor_type;location;lat;lon;timestamp;P1;durP1;ratioP1;P2;durP2;ratioP2
2998;SDS011;1509;51.964;7.628;2023-12-14T00:00:13;13.70;;;7.27;;
2998;SDS011;1509;51.964;7.628;2023-12-14T00:02:39;13.53;;;7.00;;
2998;SDS011;1509;51.964;7.628;2023-12-14T00:05:05;12.43;;;7.67;;
2998;SDS011;1509;51.964;7.628;2023-12-14T00:07:31;15.60;;;8.70;;
2998;SDS011;1509;51.964;7.628;2023-12-14T00:09:56;11.57;;;7.90;;
2998;SDS011;1509;51.964;7.628;2023-12-14T00:12:22;15.50;;;8.90;;
2998;SDS011;1509;51.964;7.628;2023-12-14T00:14:48;12.57;;;6.70;;
2998;SDS011;1509;51.964;7.628;2023-12-14T00:17:14;11.30;;;6.87;;
2998;SDS011;1509;51.964;7.628;2023-12-14T00:19:39;10.37;;;5.57;;
2998;SDS011;1509;51.964;7.628;2023-12-14T00:22:05;12.10;;;6.23;;
2998;SDS011;1509;51.964;7.628;2023-12-14T00:24:30;10.67;;;6.57;;
2998;SDS011;1509;51.964;7.628;2023-12-14T00:26:56;14.43;;;6.73;;
2998;SDS011;1509;51.964;7.628;2023-12-14T00:29:21;11.93;;;6.00;;
2998;SDS011;1509;51.964;7.628;2023-12-14T00:31:47;11.10;;;6.57;;
2998;SDS011;1509;51.964;7.628;2023-12-14T00:34:13;12.00;;;6.50;;
2998;SDS011;1509;51.964;7.628;2023-12-14T00:36:38;9.67;;;6.50;;
2998;SDS011;1509;51.964;7.628;2023-12-14T00:39:04;8.90;;;5.40;;
2998;SDS011;1509;51.964;7.628;2023-12-14T00:41:29;9.17;;;5.93;;
2998;SDS011;1509;51.964;7.628;2023-12-14T00:43:55;13.53;;;7.00;;
2998;SDS011;1509;51.964;7.628;2023-12-14T00:46:20;7.77;;;6.30;;
2998;SDS011;1509;51.964;7.628;2023-12-14T00:48:46;11.77;;;6.53;;
2998;SDS011;1509;51.964;7.628;2023-12-14T00:51:11;13.73;;;6.93;;
2998;SDS011;1509;51.964;7.628;2023-12-14T00:53:37;11.57;;;7.03;;
2998;SDS011;1509;51.964;7.628;2023-12-14T00:56:03;15.47;;;7.73;;
2998;SDS011;1509;51.964;7.628;2023-12-14T00:58:28;11.30;;;8.20;;
2998;SDS011;1509;51.964;7.628;2023-12-14T01:00:54;15.77;;;8.10;;
2998;SDS011;1509;51.964;7.628;2023-12-14T01:03:20;13.70;;;6.30;;
2998;SDS011;1509;51.964;7.628;2023-12-14T01:05:45;15.60;;;8.27;;
2998;SDS011;1509;51.964;7.628;2023-12-14T01:08:11;14.60;;;7.53;;
2998;SDS011;1509;51.964;7.628;2023-12-14T01:10:37;14.20;;;6.97;;
2998;SDS011;1509;51.964;7.628;2023-12-14T01:13:02;11.47;;;7.50;;
2998;SDS011;1509;51.964;7.628;2023-12-14T01:15:28;11.20;;;7.47;;
2998;SDS011;1509;51.964;7.628;2023-12-14T01:17:54;12.53;;;6.93;;
2998;SDS011;1509;51.964;7.628;2023-12-14T01:20:19;12.57;;;6.83;;
2998;SDS011;1509;51.964;7.628;2023-12-14T01:22:45;12.83;;;6.30;;
2998;SDS011;1509;51.964;7.628;2023-12-14T01:25:10;12.70;;;6.63;;
2998;SDS011;1509;51.964;7.628;2023-12-14T01:27:36;14.47;;;6.70;;
2998;SDS011;1509;51.964;7.628;2023-12-14T01:30:02;13.63;;;7.57;;
2998;SDS011;1509;51.964;7.628;2023-12-14T01:32:28;15.63;;;7.47;;
2998;SDS011;1509;51.964;7.628;2023-12-14T01:34:53;13.60;;;7.93;;
2998;SDS011;1509;51.964;7.628;2023-12-14T01:37:19;10.83;;;6.57;;
2998;SDS011;1509;51.964;7.628;2023-12-14T01:39:45;10.70;;;7.07;;
2998;SDS011;1509;51.964;7.628;2023-12-14T01:42:10;11.17;;;6.50;;
2998;SDS011;1509;51.964;7.628;2023-12-14T01:44:36;12.70;;;8.13;;
2998;SDS011;1509;51.964;7.628;2023-12-14T01:47:01;10.87;;;6.00;;
2998;SDS011;1509;51.964;7.628;2023-12-14T01:49:27;12.53;;;6.80;;
2998;SDS011;1509;51.964;7.628;2023-12-14T01:51:52;13.90;;;6.23;;
2998;SDS011;1509;51.964;7.628;2023-12-14T01:54:18;10.90;;;6.07;;
2998;SDS011;1509;51.964;7.628;2023-12-14T01:56:43;10.10;;;5.87;;
2998;SDS011;1509;51.964;7.628;2023-12-14T01:59:11;10.87;;;7.17;;
2998;SDS011;1509;51.964;7.628;2023-12-14T02:01:41;10.03;;;6.80;;
2998;SDS011;1509;51.964;7.628;2023-12-14T02:04:09;10.70;;;6.70;;
2998;SDS011;1509;51.964;7.628;2023-12-14T02:06:36;12.47;;;7.07;;
2998;SDS011;1509;51.964;7.628;2023-12-14T02:09:02;11.47;;;6.67;;
2998;SDS011;1509;51.964;7.628;2023-12-14T02:11:27;9.10;;;5.67;;
2998;SDS011;1509;51.964;7.628;2023-12-14T02:13:53;14.23;;;7.27;;
2998;SDS011;1509;51.964;7.628;2023-12-14T02:16:19;7.93;;;5.70;;
2998;SDS011;1509;51.964;7.628;2023-12-14T02:18:44;11.50;;;6.10;;
2998;SDS011;1509;51.964;7.628;2023-12-14T02:21:10;9.80;;;5.80;;
2998;SDS011;1509;51.964;7.628;2023-12-14T02:23:42;10.03;;;6.03;;
2998;SDS011;1509;51.964;7.628;2023-12-14T02:26:13;8.10;;;5.27;;
2998;SDS011;1509;51.964;7.628;2023-12-14T02:28:39;7.63;;;5.93;;
2998;SDS011;1509;51.964;7.628;2023-12-14T02:31:05;7.80;;;5.53;;
2998;SDS011;1509;51.964;7.628;2023-12-14T02:33:31;11.73;;;6.30;;
2998;SDS011;1509;51.964;7.628;2023-12-14T02:35:56;8.93;;;6.07;;
2998;SDS011;1509;51.964;7.628;2023-12-14T02:38:22;6.40;;;4.23;;
2998;SDS011;1509;51.964;7.628;2023-12-14T02:40:47;9.93;;;6.17;;
2998;SDS011;1509;51.964;7.628;2023-12-14T02:43:15;8.47;;;4.73;;
2998;SDS011;1509;51.964;7.628;2023-12-14T02:45:41;10.83;;;6.10;;
2998;SDS011;1509;51.964;7.628;2023-12-14T02:48:06;8.67;;;5.80;;
2998;SDS011;1509;51.964;7.628;2023-12-14T02:50:32;7.40;;;5.43;;
2998;SDS011;1509;51.964;7.628;2023-12-14T02:52:58;9.90;;;6.37;;
2998;SDS011;1509;51.964;7.628;2023-12-14T02:55:23;9.03;;;5.37;;
2998;SDS011;1509;51.964;7.628;2023-12-14T02:57:49;9.33;;;5.63;;
2998;SDS011;1509;51.964;7.628;2023-12-14T03:00:14;8.50;;;5.00;;
2998;SDS011;1509;51.964;7.628;2023-12-14T03:02:40;8.37;;;5.87;;
2998;SDS011;1509;51.964;7.628;2023-12-14T03:05:06;9.67;;;5.67;;
2998;SDS011;1509;51.964;7.628;2023-12-14T03:07:31;9.47;;;6.00;;
2998;SDS011;1509;51.964;7.628;2023-12-14T03:09:57;7.87;;;5.70;;
2998;SDS011;1509;51.964;7.628;2023-12-14T03:12:22;11.10;;;6.57;;
2998;SDS011;1509;51.964;7.628;2023-12-14T03:14:48;10.53;;;6.50;;
2998;SDS011;1509;51.964;7.628;2023-12-14T03:17:14;11.17;;;6.27;;
2998;SDS011;1509;51.964;7.628;2023-12-14T03:19:41;7.30;;;5.33;;
2998;SDS011;1509;51.964;7.628;2023-12-14T03:22:07;9.97;;;4.60;;
2998;SDS011;1509;51.964;7.628;2023-12-14T03:24:33;10.97;;;5.80;;
2998;SDS011;1509;51.964;7.628;2023-12-14T03:26:59;9.37;;;6.03;;
2998;SDS011;1509;51.964;7.628;2023-12-14T03:29:25;8.10;;;5.60;;
2998;SDS011;1509;51.964;7.628;2023-12-14T03:31:52;8.00;;;4.93;;
2998;SDS011;1509;51.964;7.628;2023-12-14T03:34:17;8.57;;;4.93;;
2998;SDS011;1509;51.964;7.628;2023-12-14T03:36:43;9.50;;;5.60;;
2998;SDS011;1509;51.964;7.628;2023-12-14T03:39:08;7.83;;;5.53;;
2998;SDS011;1509;51.964;7.628;2023-12-14T03:41:35;8.67;;;5.03;;
2998;SDS011;1509;51.964;7.628;2023-12-14T03:44:00;9.83;;;6.23;;
2998;SDS011;1509;51.964;7.628;2023-12-14T03:46:26;8.37;;;5.47;;
2998;SDS011;1509;51.964;7.628;2023-12-14T03:48:52;8.17;;;5.43;;
2998;SDS011;1509;51.964;7.628;2023-12-14T03:51:18;12.10;;;4.87;;
2998;SDS011;1509;51.964;7.628;2023-12-14T03:53:44;8.40;;;4.73;;
2998;SDS011;1509;51.964;7.628;2023-12-14T03:56:10;8.53;;;5.70;;
2998;SDS011;1509;51.964;7.628;2023-12-14T03:58:36;9.10;;;5.73;;
2998;SDS011;1509;51.964;7.628;2023-12-14T04:01:01;10.53;;;6.67;;
2998;SDS011;1509;51.964;7.628;2023-12-14T04:03:27;7.73;;;5.50;;
2998;SDS011;1509;51.964;7.628;2023-12-14T04:05:52;14.10;;;6.23;;
2998;SDS011;1509;51.964;7.628;2023-12-14T04:08:18;10.87;;;6.17;;
2998;SDS011;1509;51.964;7.628;2023-12-14T04:10:44;8.83;;;5.40;;
2998;SDS011;1509;51.964;7.628;2023-12-14T04:13:09;13.30;;;6.97;;
2998;SDS011;1509;51.964;7.628;2023-12-14T04:15:35;9.40;;;5.73;;
2998;SDS011;1509;51.964;7.628;2023-12-14T04:18:00;8.63;;;6.13;;
2998;SDS011;1509;51.964;7.628;2023-12-14T04:20:26;11.00;;;7.30;;
2998;SDS011;1509;51.964;7.628;2023-12-14T04:22:51;10.40;;;5.70;;
2998;SDS011;1509;51.964;7.628;2023-12-14T04:25:17;11.60;;;7.10;;
2998;SDS011;1509;51.964;7.628;2023-12-14T04:27:43;8.63;;;6.57;;
2998;SDS011;1509;51.964;7.628;2023-12-14T04:30:09;9.40;;;6.13;;
2998;SDS011;1509;51.964;7.628;2023-12-14T04:32:38;10.73;;;6.50;;
2998;SDS011;1509;51.964;7.628;2023-12-14T04:35:04;9.83;;;6.40;;
2998;SDS011;1509;51.964;7.628;2023-12-14T04:37:30;10.93;;;6.73;;
2998;SDS011;1509;51.964;7.628;2023-12-14T04:39:57;10.20;;;6.20;;
2998;SDS011;1509;51.964;7.628;2023-12-14T04:42:22;10.40;;;6.70;;
2998;SDS011;1509;51.964;7.628;2023-12-14T04:44:48;9.73;;;6.37;;
2998;SDS011;1509;51.964;7.628;2023-12-14T04:47:13;10.70;;;6.37;;
2998;SDS011;1509;51.964;7.628;2023-12-14T04:49:39;10.90;;;8.03;;
2998;SDS011;1509;51.964;7.628;2023-12-14T04:52:07;10.50;;;5.87;;
2998;SDS011;1509;51.964;7.628;2023-12-14T04:54:33;9.73;;;6.20;;
2998;SDS011;1509;51.964;7.628;2023-12-14T04:57:02;8.10;;;6.73;;
2998;SDS011;1509;51.964;7.628;2023-12-14T04:59:28;9.90;;;6.80;;
2998;SDS011;1509;51.964;7.628;2023-12-14T05:01:54;10.33;;;6.80;;
2998;SDS011;1509;51.964;7.628;2023-12-14T05:04:19;14.50;;;7.03;;
2998;SDS011;1509;51.964;7.628;2023-12-14T05:06:45;9.60;;;6.27;;
2998;SDS011;1509;51.964;7.628;2023-12-14T05:09:14;9.93;;;6.53;;
2998;SDS011;1509;51.964;7.628;2023-12-14T05:11:39;7.57;;;5.87;;
2998;SDS011;1509;51.964;7.628;2023-12-14T05:14:05;11.90;;;6.50;;
2998;SDS011;1509;51.964;7.628;2023-12-14T05:16:31;10.53;;;5.70;;
2998;SDS011;1509;51.964;7.628;2023-12-14T05:18:56;10.03;;;6.90;;
2998;SDS011;1509;51.964;7.628;2023-12-14T05:21:22;10.50;;;5.87;;
2998;SDS011;1509;51.964;7.628;2023-12-14T05:23:48;9.23;;;6.17;;
2998;SDS011;1509;51.964;7.628;2023-12-14T05:26:14;11.30;;;6.80;;
2998;SDS011;1509;51.964;7.628;2023-12-14T05:28:40;10.53;;;6.60;;
2998;SDS011;1509;51.964;7.628;2023-12-14T05:31:05;8.37;;;6.13;;
2998;SDS011;1509;51.964;7.628;2023-12-14T05:33:31;9.90;;;6.43;;
2998;SDS011;1509;51.964;7.628;2023-12-14T05:35:58;12.03;;;7.10;;
2998;SDS011;1509;51.964;7.628;2023-12-14T05:38:24;10.70;;;6.63;;
2998;SDS011;1509;51.964;7.628;2023-12-14T05:40:50;13.57;;;7.50;;
2998;SDS011;1509;51.964;7.628;2023-12-14T05:43:18;13.60;;;7.10;;
2998;SDS011;1509;51.964;7.628;2023-12-14T05:45:43;14.40;;;8.43;;
2998;SDS011;1509;51.964;7.628;2023-12-14T05:48:09;13.90;;;7.97;;
2998;SDS011;1509;51.964;7.628;2023-12-14T05:50:35;12.07;;;7.50;;
2998;SDS011;1509;51.964;7.628;2023-12-14T05:53:00;13.00;;;8.17;;
2998;SDS011;1509;51.964;7.628;2023-12-14T05:55:26;12.87;;;8.03;;
2998;SDS011;1509;51.964;7.628;2023-12-14T05:57:52;13.97;;;8.60;;
2998;SDS011;1509;51.964;7.628;2023-12-14T06:00:19;11.17;;;7.60;;
2998;SDS011;1509;51.964;7.628;2023-12-14T06:02:44;11.57;;;7.33;;
2998;SDS011;1509;51.964;7.628;2023-12-14T06:05:10;11.90;;;8.00;;
2998;SDS011;1509;51.964;7.628;2023-12-14T06:07:36;14.67;;;8.47;;
2998;SDS011;1509;51.964;7.628;2023-12-14T06:10:02;12.13;;;7.20;;
2998;SDS011;1509;51.964;7.628;2023-12-14T06:12:28;10.80;;;6.70;;
2998;SDS011;1509;51.964;7.628;2023-12-14T06:14:54;13.20;;;7.57;;
2998;SDS011;1509;51.964;7.628;2023-12-14T06:17:19;12.07;;;8.13;;
2998;SDS011;1509;51.964;7.628;2023-12-14T06:19:45;13.70;;;7.50;;
2998;SDS011;1509;51.964;7.628;2023-12-14T06:22:11;19.00;;;9.70;;
2998;SDS011;1509;51.964;7.628;2023-12-14T06:24:36;9.73;;;7.00;;
2998;SDS011;1509;51.964;7.628;2023-12-14T06:27:02;12.77;;;6.97;;
2998;SDS011;1509;51.964;7.628;2023-12-14T06:29:28;14.50;;;10.07;;
2998;SDS011;1509;51.964;7.628;2023-12-14T06:31:54;13.80;;;8.30;;
2998;SDS011;1509;51.964;7.628;2023-12-14T06:34:19;13.73;;;9.20;;
2998;SDS011;1509;51.964;7.628;2023-12-14T06:36:45;18.00;;;10.60;;
2998;SDS011;1509;51.964;7.628;2023-12-14T06:39:11;12.97;;;8.80;;
2998;SDS011;1509;51.964;7.628;2023-12-14T06:41:37;16.03;;;9.20;;
2998;SDS011;1509;51.964;7.628;2023-12-14T06:44:02;14.23;;;9.83;;
2998;SDS011;1509;51.964;7.628;2023-12-14T06:46:28;18.83;;;8.70;;
2998;SDS011;1509;51.964;7.628;2023-12-14T06:48:54;10.80;;;7.90;;
2998;SDS011;1509;51.964;7.628;2023-12-14T06:51:20;20.20;;;10.03;;
2998;SDS011;1509;51.964;7.628;2023-12-14T06:53:47;14.10;;;9.03;;
2998;SDS011;1509;51.964;7.628;2023-12-14T06:56:13;19.23;;;9.67;;
2998;SDS011;1509;51.964;7.628;2023-12-14T06:58:42;17.13;;;9.07;;
2998;SDS011;1509;51.964;7.628;2023-12-14T07:01:12;15.57;;;9.20;;
2998;SDS011;1509;51.964;7.628;2023-12-14T07:03:40;13.90;;;8.70;;
2998;SDS011;1509;51.964;7.628;2023-12-14T07:06:07;16.23;;;9.00;;
2998;SDS011;1509;51.964;7.628;2023-12-14T07:08:33;15.87;;;9.80;;
2998;SDS011;1509;51.964;7.628;2023-12-14T07:10:58;15.90;;;9.33;;
2998;SDS011;1509;51.964;7.628;2023-12-14T07:13:24;16.83;;;8.77;;
2998;SDS011;1509;51.964;7.628;2023-12-14T07:15:51;14.20;;;10.13;;
2998;SDS011;1509;51.964;7.628;2023-12-14T07:18:16;21.07;;;9.67;;
2998;SDS011;1509;51.964;7.628;2023-12-14T07:20:42;13.83;;;8.27;;
2998;SDS011;1509;51.964;7.628;2023-12-14T07:23:07;14.67;;;9.40;;
2998;SDS011;1509;51.964;7.628;2023-12-14T07:25:33;15.87;;;9.87;;
2998;SDS011;1509;51.964;7.628;2023-12-14T07:27:59;13.70;;;8.47;;
2998;SDS011;1509;51.964;7.628;2023-12-14T07:30:24;18.40;;;9.00;;
2998;SDS011;1509;51.964;7.628;2023-12-14T07:32:50;18.13;;;10.30;;
2998;SDS011;1509;51.964;7.628;2023-12-14T07:35:16;16.47;;;9.50;;
2998;SDS011;1509;51.964;7.628;2023-12-14T07:37:41;12.23;;;8.47;;
2998;SDS011;1509;51.964;7.628;2023-12-14T07:40:07;14.47;;;8.87;;
2998;SDS011;1509;51.964;7.628;2023-12-14T07:42:34;16.93;;;9.97;;
2998;SDS011;1509;51.964;7.628;2023-12-14T07:44:59;14.37;;;7.77;;
2998;SDS011;1509;51.964;7.628;2023-12-14T07:47:25;13.37;;;7.63;;
2998;SDS011;1509;51.964;7.628;2023-12-14T07:49:51;11.73;;;7.93;;
2998;SDS011;1509;51.964;7.628;2023-12-14T07:52:16;13.00;;;7.53;;
2998;SDS011;1509;51.964;7.628;2023-12-14T07:54:42;14.70;;;9.00;;
2998;SDS011;1509;51.964;7.628;2023-12-14T07:57:07;12.47;;;7.90;;
2998;SDS011;1509;51.964;7.628;2023-12-14T07:59:33;14.50;;;8.87;;
2998;SDS011;1509;51.964;7.628;2023-12-14T08:01:58;15.60;;;8.70;;
2998;SDS011;1509;51.964;7.628;2023-12-14T08:04:24;14.90;;;10.10;;
2998;SDS011;1509;51.964;7.628;2023-12-14T08:06:50;9.03;;;6.80;;
2998;SDS011;1509;51.964;7.628;2023-12-14T08:09:16;11.30;;;8.17;;
2998;SDS011;1509;51.964;7.628;2023-12-14T08:11:42;13.73;;;8.10;;
2998;SDS011;1509;51.964;7.628;2023-12-14T08:14:07;13.57;;;8.20;;
2998;SDS011;1509;51.964;7.628;2023-12-14T08:16:35;13.93;;;8.50;;
2998;SDS011;1509;51.964;7.628;2023-12-14T08:19:01;12.47;;;8.37;;
2998;SDS011;1509;51.964;7.628;2023-12-14T08:21:27;11.57;;;8.00;;
2998;SDS011;1509;51.964;7.628;2023-12-14T08:23:52;11.80;;;7.90;;
2998;SDS011;1509;51.964;7.628;2023-12-14T08:26:18;13.27;;;8.47;;
2998;SDS011;1509;51.964;7.628;2023-12-14T08:28:43;12.87;;;8.33;;
2998;SDS011;1509;51.964;7.628;2023-12-14T08:31:09;13.93;;;9.20;;
2998;SDS011;1509;51.964;7.628;2023-12-14T08:33:37;15.37;;;8.97;;
2998;SDS011;1509;51.964;7.628;2023-12-14T08:36:02;15.50;;;8.20;;
2998;SDS011;1509;51.964;7.628;2023-12-14T08:38:30;11.53;;;8.00;;
2998;SDS011;1509;51.964;7.628;2023-12-14T08:40:55;15.63;;;9.70;;
2998;SDS011;1509;51.964;7.628;2023-12-14T08:43:21;14.03;;;7.43;;
2998;SDS011;1509;51.964;7.628;2023-12-14T08:45:46;12.10;;;7.70;;
2998;SDS011;1509;51.964;7.628;2023-12-14T08:48:13;11.87;;;7.87;;
2998;SDS011;1509;51.964;7.628;2023-12-14T08:50:42;11.63;;;7.27;;
2998;SDS011;1509;51.964;7.628;2023-12-14T08:53:08;15.17;;;7.57;;
2998;SDS011;1509;51.964;7.628;2023-12-14T08:55:34;12.30;;;8.60;;
2998;SDS011;1509;51.964;7.628;2023-12-14T08:57:59;13.30;;;8.47;;
2998;SDS011;1509;51.964;7.628;2023-12-14T09:00:25;12.33;;;7.90;;
2998;SDS011;1509;51.964;7.628;2023-12-14T09:02:51;14.10;;;7.93;;
2998;SDS011;1509;51.964;7.628;2023-12-14T09:05:17;11.37;;;9.10;;
2998;SDS011;1509;51.964;7.628;2023-12-14T09:07:45;17.57;;;8.63;;
2998;SDS011;1509;51.964;7.628;2023-12-14T09:10:11;10.50;;;6.90;;
2998;SDS011;1509;51.964;7.628;2023-12-14T09:12:37;11.17;;;8.00;;
2998;SDS011;1509;51.964;7.628;2023-12-14T09:15:03;16.70;;;8.27;;
2998;SDS011;1509;51.964;7.628;2023-12-14T09:17:29;13.63;;;8.37;;
2998;SDS011;1509;51.964;7.628;2023-12-14T09:19:58;13.60;;;7.53;;
2998;SDS011;1509;51.964;7.628;2023-12-14T09:22:25;13.77;;;8.83;;
2998;SDS011;1509;51.964;7.628;2023-12-14T09:24:51;12.60;;;8.20;;
2998;SDS011;1509;51.964;7.628;2023-12-14T09:27:16;14.50;;;9.13;;
2998;SDS011;1509;51.964;7.628;2023-12-14T09:29:42;14.50;;;8.40;;
2998;SDS011;1509;51.964;7.628;2023-12-14T09:32:08;14.50;;;9.23;;
2998;SDS011;1509;51.964;7.628;2023-12-14T09:34:34;15.87;;;8.80;;
2998;SDS011;1509;51.964;7.628;2023-12-14T09:37:00;12.43;;;7.70;;
2998;SDS011;1509;51.964;7.628;2023-12-14T09:39:26;15.47;;;10.53;;
2998;SDS011;1509;51.964;7.628;2023-12-14T09:41:53;14.37;;;8.83;;
2998;SDS011;1509;51.964;7.628;2023-12-14T09:44:30;15.63;;;8.60;;
2998;SDS011;1509;51.964;7.628;2023-12-14T09:47:00;13.13;;;8.73;;
2998;SDS011;1509;51.964;7.628;2023-12-14T09:49:29;14.50;;;8.03;;
2998;SDS011;1509;51.964;7.628;2023-12-14T09:51:58;14.00;;;9.50;;
2998;SDS011;1509;51.964;7.628;2023-12-14T09:54:24;13.77;;;8.80;;
2998;SDS011;1509;51.964;7.628;2023-12-14T09:56:51;12.70;;;8.67;;
2998;SDS011;1509;51.964;7.628;2023-12-14T09:59:20;14.87;;;9.93;;
2998;SDS011;1509;51.964;7.628;2023-12-14T10:01:46;13.93;;;8.63;;
2998;SDS011;1509;51.964;7.628;2023-12-14T10:04:16;16.20;;;9.07;;
2998;SDS011;1509;51.964;7.628;2023-12-14T10:06:43;13.60;;;10.13;;
2998;SDS011;1509;51.964;7.628;2023-12-14T10:09:10;14.27;;;8.73;;
2998;SDS011;1509;51.964;7.628;2023-12-14T10:11:44;12.50;;;9.23;;
2998;SDS011;1509;51.964;7.628;2023-12-14T10:16:49;16.97;;;9.67;;
2998;SDS011;1509;51.964;7.628;2023-12-14T10:19:16;15.30;;;10.40;;
2998;SDS011;1509;51.964;7.628;2023-12-14T10:21:42;14.50;;;8.40;;
2998;SDS011;1509;51.964;7.628;2023-12-14T10:24:08;15.50;;;9.63;;
2998;SDS011;1509;51.964;7.628;2023-12-14T10:26:36;19.47;;;11.23;;
2998;SDS011;1509;51.964;7.628;2023-12-14T10:29:05;18.70;;;11.10;;
2998;SDS011;1509;51.964;7.628;2023-12-14T10:31:31;18.80;;;10.67;;
2998;SDS011;1509;51.964;7.628;2023-12-14T10:33:57;23.20;;;11.33;;
2998;SDS011;1509;51.964;7.628;2023-12-14T10:36:24;16.87;;;10.13;;
2998;SDS011;1509;51.964;7.628;2023-12-14T10:38:53;15.70;;;10.73;;
2998;SDS011;1509;51.964;7.628;2023-12-14T10:41:21;14.77;;;10.20;;
2998;SDS011;1509;51.964;7.628;2023-12-14T10:43:48;20.03;;;11.10;;
2998;SDS011;1509;51.964;7.628;2023-12-14T10:46:15;18.33;;;11.60;;
2998;SDS011;1509;51.964;7.628;2023-12-14T10:48:42;18.27;;;10.60;;
2998;SDS011;1509;51.964;7.628;2023-12-14T10:51:13;17.20;;;10.40;;
2998;SDS011;1509;51.964;7.628;2023-12-14T10:53:40;19.00;;;10.47;;
2998;SDS011;1509;51.964;7.628;2023-12-14T10:56:10;15.87;;;10.23;;
2998;SDS011;1509;51.964;7.628;2023-12-14T10:58:46;20.83;;;11.80;;
2998;SDS011;1509;51.964;7.628;2023-12-14T11:01:15;18.00;;;10.20;;
2998;SDS011;1509;51.964;7.628;2023-12-14T11:03:42;21.23;;;11.70;;
2998;SDS011;1509;51.964;7.628;2023-12-14T11:08:57;16.97;;;11.50;;
2998;SDS011;1509;51.964;7.628;2023-12-14T11:11:27;17.03;;;9.50;;
2998;SDS011;1509;51.964;7.628;2023-12-14T11:13:53;17.63;;;10.67;;
2998;SDS011;1509;51.964;7.628;2023-12-14T11:16:23;21.30;;;10.97;;
2998;SDS011;1509;51.964;7.628;2023-12-14T11:19:23;19.60;;;12.90;;
2998;SDS011;1509;51.964;7.628;2023-12-14T11:24:30;18.97;;;10.17;;
2998;SDS011;1509;51.964;7.628;2023-12-14T11:26:56;20.03;;;11.30;;
2998;SDS011;1509;51.964;7.628;2023-12-14T11:29:22;22.13;;;11.97;;
2998;SDS011;1509;51.964;7.628;2023-12-14T11:31:48;16.50;;;11.77;;
2998;SDS011;1509;51.964;7.628;2023-12-14T11:34:16;19.67;;;11.53;;
2998;SDS011;1509;51.964;7.628;2023-12-14T11:36:42;21.47;;;11.47;;
2998;SDS011;1509;51.964;7.628;2023-12-14T11:39:11;17.53;;;12.10;;
2998;SDS011;1509;51.964;7.628;2023-12-14T11:41:36;16.27;;;11.53;;
2998;SDS011;1509;51.964;7.628;2023-12-14T11:44:03;16.50;;;9.87;;
2998;SDS011;1509;51.964;7.628;2023-12-14T11:46:29;19.30;;;11.50;;
2998;SDS011;1509;51.964;7.628;2023-12-14T11:48:58;16.87;;;10.93;;
2998;SDS011;1509;51.964;7.628;2023-12-14T11:51:24;16.30;;;10.20;;
2998;SDS011;1509;51.964;7.628;2023-12-14T11:53:51;16.70;;;10.40;;
2998;SDS011;1509;51.964;7.628;2023-12-14T11:56:17;16.60;;;10.13;;
2998;SDS011;1509;51.964;7.628;2023-12-14T11:58:44;19.77;;;10.90;;
2998;SDS011;1509;51.964;7.628;2023-12-14T12:01:11;17.73;;;11.20;;
2998;SDS011;1509;51.964;7.628;2023-12-14T12:03:40;20.33;;;11.37;;
2998;SDS011;1509;51.964;7.628;2023-12-14T12:06:05;18.43;;;10.80;;
2998;SDS011;1509;51.964;7.628;2023-12-14T12:08:31;18.87;;;11.37;;
2998;SDS011;1509;51.964;7.628;2023-12-14T12:11:06;19.27;;;12.07;;
2998;SDS011;1509;51.964;7.628;2023-12-14T12:13:34;17.83;;;9.97;;
2998;SDS011;1509;51.964;7.628;2023-12-14T12:15:59;20.50;;;10.57;;
2998;SDS011;1509;51.964;7.628;2023-12-14T12:18:25;18.30;;;10.67;;
2998;SDS011;1509;51.964;7.628;2023-12-14T12:20:51;17.30;;;10.90;;
2998;SDS011;1509;51.964;7.628;2023-12-14T12:23:18;15.00;;;9.93;;
2998;SDS011;1509;51.964;7.628;2023-12-14T12:25:44;16.97;;;9.80;;
2998;SDS011;1509;51.964;7.628;2023-12-14T12:28:09;20.13;;;10.50;;
2998;SDS011;1509;51.964;7.628;2023-12-14T12:30:35;15.77;;;9.73;;
2998;SDS011;1509;51.964;7.628;2023-12-14T12:33:01;16.40;;;9.13;;
2998;SDS011;1509;51.964;7.628;2023-12-14T12:35:26;13.23;;;9.90;;
2998;SDS011;1509;51.964;7.628;2023-12-14T12:37:55;17.97;;;10.30;;
2998;SDS011;1509;51.964;7.628;2023-12-14T12:40:24;13.10;;;8.80;;
2998;SDS011;1509;51.964;7.628;2023-12-14T12:42:54;16.17;;;9.70;;
2998;SDS011;1509;51.964;7.628;2023-12-14T12:45:20;17.33;;;10.40;;
2998;SDS011;1509;51.964;7.628;2023-12-14T12:47:52;16.43;;;9.90;;
2998;SDS011;1509;51.964;7.628;2023-12-14T12:50:18;14.97;;;9.63;;
2998;SDS011;1509;51.964;7.628;2023-12-14T12:52:45;15.30;;;10.07;;
2998;SDS011;1509;51.964;7.628;2023-12-14T12:55:14;17.27;;;10.17;;
2998;SDS011;1509;51.964;7.628;2023-12-14T12:57:40;16.77;;;9.93;;
2998;SDS011;1509;51.964;7.628;2023-12-14T13:00:07;18.73;;;11.23;;
2998;SDS011;1509;51.964;7.628;2023-12-14T13:02:41;16.30;;;9.83;;
2998;SDS011;1509;51.964;7.628;2023-12-14T13:05:08;14.53;;;9.77;;
2998;SDS011;1509;51.964;7.628;2023-12-14T13:07:35;17.30;;;11.52;;
2998;SDS011;1509;51.964;7.628;2023-12-14T13:10:02;12.87;;;9.13;;
2998;SDS011;1509;51.964;7.628;2023-12-14T13:12:29;15.77;;;9.50;;
2998;SDS011;1509;51.964;7.628;2023-12-14T13:14:55;15.70;;;8.90;;
2998;SDS011;1509;51.964;7.628;2023-12-14T13:17:20;10.80;;;8.00;;
2998;SDS011;1509;51.964;7.628;2023-12-14T13:19:47;13.90;;;8.70;;
2998;SDS011;1509;51.964;7.628;2023-12-14T13:22:12;15.17;;;9.67;;
2998;SDS011;1509;51.964;7.628;2023-12-14T13:24:38;11.43;;;7.60;;
2998;SDS011;1509;51.964;7.628;2023-12-14T13:27:04;16.53;;;9.50;;
2998;SDS011;1509;51.964;7.628;2023-12-14T13:29:30;15.40;;;9.83;;
2998;SDS011;1509;51.964;7.628;2023-12-14T13:31:57;14.20;;;9.57;;
2998;SDS011;1509;51.964;7.628;2023-12-14T13:34:24;16.07;;;8.83;;
2998;SDS011;1509;51.964;7.628;2023-12-14T13:36:50;11.63;;;9.00;;
2998;SDS011;1509;51.964;7.628;2023-12-14T13:39:15;14.53;;;9.00;;
2998;SDS011;1509;51.964;7.628;2023-12-14T13:41:41;17.27;;;9.83;;
2998;SDS011;1509;51.964;7.628;2023-12-14T13:44:07;11.80;;;8.60;;
2998;SDS011;1509;51.964;7.628;2023-12-14T13:46:32;13.17;;;7.60;;
2998;SDS011;1509;51.964;7.628;2023-12-14T13:48:58;17.67;;;10.90;;
2998;SDS011;1509;51.964;7.628;2023-12-14T13:51:23;12.60;;;7.50;;
2998;SDS011;1509;51.964;7.628;2023-12-14T13:53:50;13.50;;;9.57;;
2998;SDS011;1509;51.964;7.628;2023-12-14T13:56:16;15.40;;;9.60;;
2998;SDS011;1509;51.964;7.628;2023-12-14T13:58:41;16.60;;;9.60;;
2998;SDS011;1509;51.964;7.628;2023-12-14T14:01:07;16.30;;;8.60;;
2998;SDS011;1509;51.964;7.628;2023-12-14T14:03:33;14.17;;;8.80;;
2998;SDS011;1509;51.964;7.628;2023-12-14T14:06:00;17.20;;;9.53;;
2998;SDS011;1509;51.964;7.628;2023-12-14T14:08:27;13.70;;;8.30;;
2998;SDS011;1509;51.964;7.628;2023-12-14T14:10:53;13.90;;;8.20;;
2998;SDS011;1509;51.964;7.628;2023-12-14T14:13:18;13.43;;;8.87;;
2998;SDS011;1509;51.964;7.628;2023-12-14T14:15:46;14.17;;;9.37;;
2998;SDS011;1509;51.964;7.628;2023-12-14T14:18:14;16.33;;;9.43;;
2998;SDS011;1509;51.964;7.628;2023-12-14T14:20:40;15.20;;;9.20;;
2998;SDS011;1509;51.964;7.628;2023-12-14T14:23:05;11.87;;;8.50;;
2998;SDS011;1509;51.964;7.628;2023-12-14T14:25:31;14.90;;;7.87;;
2998;SDS011;1509;51.964;7.628;2023-12-14T14:27:57;12.03;;;8.73;;
2998;SDS011;1509;51.964;7.628;2023-12-14T14:30:24;16.10;;;8.93;;
2998;SDS011;1509;51.964;7.628;2023-12-14T14:32:49;12.47;;;8.00;;
2998;SDS011;1509;51.964;7.628;2023-12-14T14:35:15;16.50;;;8.93;;
2998;SDS011;1509;51.964;7.628;2023-12-14T14:37:41;13.33;;;9.27;;
2998;SDS011;1509;51.964;7.628;2023-12-14T14:40:10;13.90;;;8.23;;
2998;SDS011;1509;51.964;7.628;2023-12-14T14:42:39;14.30;;;8.70;;
2998;SDS011;1509;51.964;7.628;2023-12-14T14:45:06;17.27;;;9.00;;
2998;SDS011;1509;51.964;7.628;2023-12-14T14:47:33;14.37;;;8.70;;
2998;SDS011;1509;51.964;7.628;2023-12-14T14:49:59;16.63;;;9.20;;
2998;SDS011;1509;51.964;7.628;2023-12-14T14:52:28;16.57;;;9.17;;
2998;SDS011;1509;51.964;7.628;2023-12-14T14:54:54;17.57;;;8.93;;
2998;SDS011;1509;51.964;7.628;2023-12-14T14:57:20;15.30;;;8.93;;
2998;SDS011;1509;51.964;7.628;2023-12-14T14:59:46;18.60;;;8.87;;
2998;SDS011;1509;51.964;7.628;2023-12-14T15:02:11;22.40;;;10.07;;